createdAt,value
2019-06-01T00:04:57.763Z,19.60
2019-06-01T00:15:21.428Z,19.50
2019-06-01T00:25:44.806Z,19.40
2019-06-01T00:36:07.521Z,19.30
2019-06-01T00:46:30.163Z,19.20
2019-06-01T00:56:53.859Z,19.00
2019-06-01T01:07:17.992Z,18.90
2019-06-01T01:17:41.181Z,18.80
2019-06-01T01:28:04.592Z,18.80
2019-06-01T01:38:27.889Z,18.70
2019-06-01T01:48:51.960Z,18.60
2019-06-01T01:59:15.578Z,18.50
2019-06-01T02:09:38.355Z,18.50
2019-06-01T02:20:02.644Z,18.40
2019-06-01T02:30:25.817Z,18.30
2019-06-01T02:40:49.226Z,18.20
2019-06-01T02:51:12.800Z,18.10
2019-06-01T03:01:37.366Z,18.10
2019-06-01T03:12:04.250Z,18.00
2019-06-01T03:22:28.896Z,17.80
2019-06-01T03:32:52.111Z,17.80
2019-06-01T03:43:16.172Z,17.70
2019-06-01T03:53:39.112Z,17.70
2019-06-01T04:04:03.073Z,17.60
2019-06-01T04:14:25.983Z,17.80
2019-06-01T04:24:48.694Z,17.90
2019-06-01T04:35:13.216Z,18.10
2019-06-01T04:45:37.150Z,18.20
2019-06-01T04:56:00.672Z,18.40
2019-06-01T05:06:24.297Z,18.60
2019-06-01T05:16:47.782Z,18.90
2019-06-01T05:27:13.058Z,19.20
2019-06-01T05:37:36.271Z,19.40
2019-06-01T05:47:59.908Z,19.50
2019-06-01T05:58:23.623Z,19.80
2019-06-01T06:08:46.813Z,20.00
2019-06-01T06:19:09.724Z,20.30
2019-06-01T06:29:32.824Z,20.60
2019-06-01T06:39:56.474Z,20.90
2019-06-01T06:50:20.000Z,21.20
2019-06-01T07:00:43.433Z,21.30
2019-06-01T07:11:06.507Z,21.70
2019-06-01T07:21:29.606Z,22.10
2019-06-01T07:31:53.098Z,22.50
2019-06-01T07:42:16.443Z,22.90
2019-06-01T07:52:39.836Z,23.30
2019-06-01T08:03:02.476Z,23.70
2019-06-01T08:13:29.982Z,24.00
2019-06-01T08:23:50.084Z,24.20
2019-06-01T08:34:12.969Z,24.40
2019-06-01T08:44:36.130Z,24.50
2019-06-01T08:54:59.315Z,24.70
2019-06-01T09:05:25.842Z,24.80
2019-06-01T09:15:47.628Z,24.90
2019-06-01T09:26:10.567Z,25.20
2019-06-01T09:36:34.525Z,25.40
2019-06-01T09:46:58.331Z,25.70
2019-06-01T09:57:21.674Z,25.90
2019-06-01T10:07:44.730Z,26.20
2019-06-01T10:18:07.752Z,26.50
2019-06-01T10:28:31.557Z,26.80
2019-06-01T10:38:55.092Z,27.60
2019-06-01T10:49:17.857Z,28.50
2019-06-01T10:59:42.524Z,29.60
2019-06-01T11:10:05.982Z,30.90
2019-06-01T11:20:28.834Z,31.60
2019-06-01T11:30:51.931Z,31.90
2019-06-01T11:41:18.512Z,32.70
2019-06-01T11:51:39.503Z,33.10
2019-06-01T12:02:02.485Z,33.00
2019-06-01T12:12:25.554Z,33.30
2019-06-01T12:22:48.464Z,34.10
2019-06-01T12:33:11.557Z,34.00
2019-06-01T12:43:34.664Z,34.30
2019-06-01T12:53:57.935Z,34.30
2019-06-01T13:04:21.296Z,34.10
2019-06-01T13:14:45.171Z,33.70
2019-06-01T13:25:09.107Z,33.40
2019-06-01T13:35:32.091Z,33.30
2019-06-01T13:45:54.983Z,33.10
2019-06-01T13:56:18.415Z,33.20
2019-06-01T14:06:41.880Z,33.00
2019-06-01T14:17:05.043Z,32.90
2019-06-01T14:27:28.886Z,33.10
2019-06-01T14:37:52.953Z,33.20
2019-06-01T14:48:16.392Z,32.70
2019-06-01T14:58:39.627Z,32.60
2019-06-01T15:09:17.537Z,32.90
2019-06-01T15:19:27.223Z,33.00
2019-06-01T15:29:50.716Z,32.90
2019-06-01T15:40:14.977Z,33.20
2019-06-01T15:50:37.975Z,33.40
2019-06-01T16:01:01.052Z,32.90
2019-06-01T16:11:23.894Z,32.80
2019-06-01T16:21:46.859Z,32.10
2019-06-01T16:32:09.811Z,32.00
2019-06-01T16:42:33.064Z,31.80
2019-06-01T16:52:57.682Z,31.70
2019-06-01T17:03:21.246Z,31.70
2019-06-01T17:13:44.663Z,31.70
2019-06-01T17:24:08.178Z,31.60
2019-06-01T17:34:31.252Z,31.30
2019-06-01T17:44:54.997Z,31.20
2019-06-01T17:55:32.766Z,31.00
2019-06-01T18:05:55.718Z,30.80
2019-06-01T18:16:18.617Z,30.50
2019-06-01T18:26:41.784Z,30.10
2019-06-01T18:37:05.736Z,29.50
2019-06-01T18:47:32.613Z,29.00
2019-06-01T18:57:57.911Z,28.50
2019-06-01T19:08:21.304Z,28.00
2019-06-01T19:18:44.865Z,27.50
2019-06-01T19:29:08.729Z,26.90
2019-06-01T19:39:32.485Z,26.20
2019-06-01T19:49:55.478Z,25.80
2019-06-01T20:00:19.288Z,25.50
2019-06-01T20:10:42.857Z,25.30
2019-06-01T20:21:05.925Z,25.00
2019-06-01T20:31:29.003Z,24.50
2019-06-01T20:41:51.669Z,24.10
2019-06-01T20:52:14.842Z,23.80
2019-06-01T21:02:37.617Z,23.40
2019-06-01T21:13:00.471Z,23.10
2019-06-01T21:23:23.171Z,22.90
2019-06-01T21:33:45.963Z,22.80
2019-06-01T21:44:08.879Z,22.60
2019-06-01T21:54:32.412Z,22.30
2019-06-01T22:04:56.743Z,22.20
2019-06-01T22:15:19.769Z,22.10
2019-06-01T22:25:43.222Z,21.80
2019-06-01T22:36:06.075Z,21.60
2019-06-01T22:46:29.297Z,21.50
2019-06-01T22:56:53.045Z,21.20
2019-06-01T23:07:16.293Z,20.90
2019-06-01T23:17:39.360Z,20.80
2019-06-01T23:28:02.287Z,20.60
2019-06-01T23:38:26.630Z,20.50
2019-06-01T23:48:50.039Z,20.30
2019-06-01T23:59:13.989Z,20.20
